createdAt,value
2023-05-03T00:00:06.554Z,103.51
2023-05-03T00:01:06.585Z,101.91
2023-05-03T00:02:06.724Z,100.49
2023-05-03T00:03:06.687Z,102.44
2023-05-03T00:04:06.651Z,101.58
2023-05-03T00:05:07.983Z,101.19
2023-05-03T00:06:06.749Z,101.70
2023-05-03T00:07:06.723Z,101.33
2023-05-03T00:08:06.735Z,101.39
2023-05-03T00:09:06.767Z,101.95
2023-05-03T00:10:06.812Z,102.70
2023-05-03T00:11:06.821Z,102.15
2023-05-03T00:12:06.842Z,99.65
2023-05-03T00:13:06.870Z,100.05
2023-05-03T00:14:06.874Z,100.34
2023-05-03T00:15:06.894Z,99.17
2023-05-03T00:16:06.921Z,98.21
2023-05-03T00:17:07.014Z,99.86
2023-05-03T00:18:07.034Z,99.34
2023-05-03T00:19:10.696Z,98.63
2023-05-03T00:20:07.976Z,98.85
2023-05-03T00:21:06.973Z,98.91
2023-05-03T00:22:06.967Z,99.60
2023-05-03T00:23:06.960Z,98.83
2023-05-03T00:24:06.944Z,100.73
2023-05-03T00:25:06.939Z,97.70
2023-05-03T00:26:06.929Z,98.01
2023-05-03T00:27:06.919Z,98.41
2023-05-03T00:28:06.931Z,98.20
2023-05-03T00:29:06.909Z,98.61
2023-05-03T00:30:06.928Z,98.43
2023-05-03T00:31:06.949Z,97.23
2023-05-03T00:32:06.899Z,95.89
2023-05-03T00:33:06.968Z,95.93
2023-05-03T00:34:06.868Z,96.27
2023-05-03T00:35:06.903Z,97.09
2023-05-03T00:36:06.864Z,95.82
2023-05-03T00:37:06.919Z,96.91
2023-05-03T00:38:06.854Z,96.81
2023-05-03T00:39:06.873Z,97.32
2023-05-03T00:40:06.884Z,97.59
2023-05-03T00:41:06.922Z,94.97
2023-05-03T00:42:07.056Z,96.75
2023-05-03T00:43:06.981Z,96.31
2023-05-03T00:44:07.009Z,95.02
2023-05-03T00:45:09.677Z,95.85
2023-05-03T00:46:15.980Z,97.06
2023-05-03T00:47:08.330Z,97.19
2023-05-03T00:48:07.326Z,96.91
2023-05-03T00:49:07.293Z,97.09
2023-05-03T00:50:07.453Z,95.90
2023-05-03T00:51:07.305Z,94.92
2023-05-03T00:52:07.321Z,94.29
2023-05-03T00:53:07.287Z,95.20
2023-05-03T00:54:07.291Z,94.07
2023-05-03T00:55:07.323Z,93.21
2023-05-03T00:56:07.299Z,92.58
2023-05-03T00:57:07.304Z,92.08
2023-05-03T00:58:07.296Z,94.73
2023-05-03T00:59:07.301Z,93.65
2023-05-03T01:00:07.305Z,92.37
2023-05-03T01:01:07.294Z,92.43
2023-05-03T01:02:07.326Z,85.98
2023-05-03T01:03:07.374Z,91.11
2023-05-03T01:04:07.326Z,92.45
2023-05-03T01:05:07.317Z,92.30
2023-05-03T01:06:07.364Z,90.78
2023-05-03T01:07:07.350Z,91.75
2023-05-03T01:08:07.291Z,91.68
2023-05-03T01:09:07.284Z,90.51
2023-05-03T01:10:07.319Z,91.01
2023-05-03T01:11:07.355Z,87.93
2023-05-03T01:12:07.381Z,91.19
2023-05-03T01:13:07.415Z,88.68
2023-05-03T01:14:07.445Z,90.72
2023-05-03T01:15:07.470Z,89.75
2023-05-03T01:16:07.569Z,87.48
2023-05-03T01:17:07.544Z,89.22
2023-05-03T01:18:07.784Z,88.67
2023-05-03T01:19:07.630Z,88.51
2023-05-03T01:20:07.645Z,88.98
2023-05-03T01:21:07.678Z,88.45
2023-05-03T01:22:07.790Z,89.61
2023-05-03T01:23:07.722Z,88.81
2023-05-03T01:24:07.770Z,88.01
2023-05-03T01:25:07.799Z,89.38
2023-05-03T01:26:07.836Z,86.68
2023-05-03T01:27:07.861Z,85.44
2023-05-03T01:28:07.888Z,86.21
2023-05-03T01:29:07.921Z,87.86
2023-05-03T01:30:07.935Z,88.15
2023-05-03T01:31:07.990Z,87.67
2023-05-03T01:32:08.046Z,84.81
2023-05-03T01:33:08.130Z,87.19
2023-05-03T01:34:08.055Z,85.61
2023-05-03T01:35:08.088Z,84.95
2023-05-03T01:36:08.116Z,84.81
2023-05-03T01:37:08.190Z,85.08
2023-05-03T01:38:08.185Z,83.13
2023-05-03T01:39:08.217Z,83.78
2023-05-03T01:40:08.250Z,82.04
2023-05-03T01:41:08.271Z,84.54
2023-05-03T01:42:08.307Z,82.76
2023-05-03T01:43:08.333Z,82.06
2023-05-03T01:44:08.355Z,81.93
2023-05-03T01:45:08.380Z,82.51
2023-05-03T01:46:08.476Z,81.33
2023-05-03T01:47:08.481Z,82.79
2023-05-03T01:48:08.509Z,82.80
2023-05-03T01:49:08.494Z,81.11
2023-05-03T01:50:08.540Z,83.02
2023-05-03T01:51:08.567Z,82.84
2023-05-03T01:52:08.611Z,80.84
2023-05-03T01:53:08.631Z,82.08
2023-05-03T01:54:08.623Z,80.14
2023-05-03T01:55:08.652Z,79.69
2023-05-03T01:56:08.686Z,80.82
2023-05-03T01:57:08.705Z,79.56
2023-05-03T01:58:08.740Z,79.02
2023-05-03T01:59:08.784Z,82.21
2023-05-03T02:00:08.806Z,80.34
2023-05-03T02:01:08.909Z,80.52
2023-05-03T02:02:08.871Z,79.29
2023-05-03T02:03:08.935Z,77.93
2023-05-03T02:04:09.020Z,77.74
2023-05-03T02:05:08.964Z,79.15
2023-05-03T02:06:09.070Z,77.50
2023-05-03T02:07:09.009Z,76.43
2023-05-03T02:08:09.051Z,78.88
2023-05-03T02:09:09.073Z,77.80
2023-05-03T02:10:09.098Z,77.61
2023-05-03T02:11:09.133Z,78.29
2023-05-03T02:12:09.153Z,76.30
2023-05-03T02:13:09.178Z,76.89
2023-05-03T02:14:09.200Z,77.90
2023-05-03T02:15:09.229Z,75.37
2023-05-03T02:16:09.350Z,76.65
2023-05-03T02:17:09.339Z,76.52
2023-05-03T02:18:09.412Z,77.02
2023-05-03T02:19:09.343Z,76.01
2023-05-03T02:20:09.387Z,76.39
2023-05-03T02:21:09.394Z,73.73
2023-05-03T02:22:09.465Z,76.09
2023-05-03T02:23:09.476Z,74.42
2023-05-03T02:24:09.472Z,75.55
2023-05-03T02:25:09.511Z,73.56
2023-05-03T02:26:09.540Z,73.21
2023-05-03T02:27:09.568Z,72.04
2023-05-03T02:28:09.582Z,74.21
2023-05-03T02:29:09.623Z,74.82
2023-05-03T02:30:09.652Z,74.66
2023-05-03T02:31:09.719Z,72.89
2023-05-03T02:32:09.699Z,73.61
2023-05-03T02:33:09.763Z,74.46
2023-05-03T02:34:09.763Z,72.88
2023-05-03T02:35:09.789Z,72.86
2023-05-03T02:36:09.821Z,72.78
2023-05-03T02:37:09.848Z,73.11
2023-05-03T02:38:09.879Z,71.48
2023-05-03T02:39:09.900Z,71.77
2023-05-03T02:40:09.961Z,72.88
2023-05-03T02:41:09.970Z,70.57
2023-05-03T02:42:09.998Z,70.87
2023-05-03T02:43:10.017Z,72.22
2023-05-03T02:44:10.057Z,69.87
2023-05-03T02:45:10.085Z,64.59
2023-05-03T02:46:10.126Z,70.35
2023-05-03T02:47:10.127Z,69.90
2023-05-03T02:48:10.187Z,69.12
2023-05-03T02:49:10.176Z,70.15
2023-05-03T02:50:10.195Z,71.08
2023-05-03T02:51:10.235Z,68.04
2023-05-03T02:52:10.263Z,70.45
2023-05-03T02:53:10.287Z,69.19
2023-05-03T02:54:10.317Z,70.21
2023-05-03T02:55:10.345Z,70.13
2023-05-03T02:56:10.375Z,68.98
2023-05-03T02:57:10.394Z,68.62
2023-05-03T02:58:10.434Z,66.44
2023-05-03T02:59:10.459Z,67.55
2023-05-03T03:00:10.480Z,67.60
2023-05-03T03:01:10.546Z,67.70
2023-05-03T03:02:10.531Z,67.40
2023-05-03T03:03:10.625Z,66.77
2023-05-03T03:04:10.627Z,66.82
2023-05-03T03:05:10.625Z,66.05
2023-05-03T03:06:10.685Z,68.40
2023-05-03T03:07:10.675Z,67.26
2023-05-03T03:08:10.703Z,65.94
2023-05-03T03:09:10.727Z,66.52
2023-05-03T03:10:10.750Z,65.81
2023-05-03T03:11:10.789Z,63.70
2023-05-03T03:12:10.805Z,65.23
2023-05-03T03:13:10.960Z,65.84
2023-05-03T03:14:10.866Z,68.19
2023-05-03T03:15:10.886Z,65.57
2023-05-03T03:16:10.969Z,64.96
2023-05-03T03:17:10.941Z,63.78
2023-05-03T03:18:11.010Z,63.87
2023-05-03T03:19:11.007Z,66.87
2023-05-03T03:20:11.025Z,63.76
2023-05-03T03:21:11.054Z,63.60
2023-05-03T03:22:11.119Z,64.35
2023-05-03T03:23:11.111Z,63.34
2023-05-03T03:24:11.139Z,65.44
2023-05-03T03:25:11.175Z,62.04
2023-05-03T03:26:11.206Z,62.37
2023-05-03T03:27:11.229Z,63.17
2023-05-03T03:28:11.258Z,62.84
2023-05-03T03:29:11.287Z,61.91
2023-05-03T03:30:11.311Z,61.65
2023-05-03T03:31:11.371Z,62.45
2023-05-03T03:32:11.375Z,61.73
2023-05-03T03:33:11.509Z,61.00
2023-05-03T03:34:11.440Z,60.90
2023-05-03T03:35:11.476Z,59.85
2023-05-03T03:36:11.506Z,64.38
2023-05-03T03:37:11.547Z,62.10
2023-05-03T03:38:11.574Z,60.98
2023-05-03T03:39:11.641Z,59.53
2023-05-03T03:40:11.635Z,59.22
2023-05-03T03:41:11.659Z,58.18
2023-05-03T03:42:11.691Z,60.12
2023-05-03T03:43:11.717Z,60.14
2023-05-03T03:44:11.759Z,59.75
2023-05-03T03:45:11.780Z,59.08
2023-05-03T03:46:11.818Z,58.24
2023-05-03T03:47:11.906Z,59.32
2023-05-03T03:48:11.942Z,57.13
2023-05-03T03:49:11.883Z,58.26
2023-05-03T03:50:11.916Z,58.59
2023-05-03T03:51:11.968Z,58.85
2023-05-03T03:52:11.964Z,59.54
2023-05-03T03:53:11.996Z,59.23
2023-05-03T03:54:12.017Z,59.97
2023-05-03T03:55:12.037Z,57.19
2023-05-03T03:56:12.077Z,54.69
2023-05-03T03:57:12.099Z,57.80
2023-05-03T03:58:12.130Z,59.95
2023-05-03T03:59:12.146Z,55.21
2023-05-03T04:00:12.173Z,58.60
2023-05-03T04:01:12.230Z,55.06
2023-05-03T04:02:12.273Z,59.77
2023-05-03T04:03:12.307Z,57.11
2023-05-03T04:04:12.444Z,55.50
2023-05-03T04:05:12.307Z,57.88
2023-05-03T04:06:12.373Z,54.71
2023-05-03T04:07:12.368Z,54.71
2023-05-03T04:08:12.422Z,55.98
2023-05-03T04:09:12.435Z,53.45
2023-05-03T04:10:12.477Z,53.81
2023-05-03T04:11:12.512Z,53.76
2023-05-03T04:12:12.519Z,54.41
2023-05-03T04:13:12.543Z,54.82
2023-05-03T04:14:12.561Z,54.60
2023-05-03T04:15:12.590Z,54.84
2023-05-03T04:16:12.615Z,53.30
2023-05-03T04:17:12.773Z,50.02
2023-05-03T04:18:12.739Z,54.32
2023-05-03T04:19:12.993Z,51.92
2023-05-03T04:20:12.785Z,52.95
2023-05-03T04:21:12.765Z,51.42
2023-05-03T04:22:12.797Z,53.07
2023-05-03T04:23:12.816Z,51.65
2023-05-03T04:24:12.853Z,52.14
2023-05-03T04:25:12.900Z,49.72
2023-05-03T04:26:23.966Z,51.36
2023-05-03T04:27:13.916Z,51.64
2023-05-03T04:28:12.899Z,51.62
2023-05-03T04:29:12.909Z,51.86
2023-05-03T04:30:12.888Z,51.78
2023-05-03T04:31:12.935Z,51.02
2023-05-03T04:32:12.891Z,52.31
2023-05-03T04:33:13.156Z,53.68
2023-05-03T04:34:12.870Z,50.80
2023-05-03T04:35:12.909Z,46.91
2023-05-03T04:36:12.870Z,52.12
2023-05-03T04:37:12.870Z,49.94
2023-05-03T04:38:12.852Z,46.84
2023-05-03T04:39:12.865Z,48.49
2023-05-03T04:40:12.872Z,46.79
2023-05-03T04:41:15.454Z,45.57
2023-05-03T04:42:12.833Z,50.18
2023-05-03T04:43:12.834Z,47.23
2023-05-03T04:44:12.836Z,47.04
2023-05-03T04:45:12.838Z,46.03
2023-05-03T04:46:12.878Z,45.38
2023-05-03T04:47:12.841Z,45.13
2023-05-03T04:48:12.920Z,45.22
2023-05-03T04:49:12.817Z,43.30
2023-05-03T04:50:12.803Z,44.50
2023-05-03T04:51:12.804Z,42.46
2023-05-03T04:52:12.801Z,44.94
2023-05-03T04:53:12.786Z,41.02
2023-05-03T04:54:12.771Z,43.94
2023-05-03T04:55:12.780Z,43.26
2023-05-03T04:56:12.769Z,42.49
2023-05-03T04:57:12.773Z,43.36
2023-05-03T04:58:12.766Z,41.94
2023-05-03T04:59:12.781Z,44.34
2023-05-03T05:00:12.766Z,43.23
2023-05-03T05:01:12.790Z,41.88
2023-05-03T05:02:12.756Z,44.19
2023-05-03T05:03:12.869Z,40.91
2023-05-03T05:04:12.751Z,42.50
2023-05-03T05:05:12.754Z,41.78
2023-05-03T05:06:12.848Z,41.16
2023-05-03T05:07:12.759Z,40.68
2023-05-03T05:08:12.767Z,40.42
2023-05-03T05:09:12.762Z,39.49
2023-05-03T05:10:12.777Z,39.22
2023-05-03T05:11:12.782Z,38.09
2023-05-03T05:12:12.772Z,41.97
2023-05-03T05:13:12.780Z,40.44
2023-05-03T05:14:12.755Z,40.65
2023-05-03T05:15:12.783Z,38.17
2023-05-03T05:16:12.772Z,36.12
2023-05-03T05:17:12.854Z,39.74
2023-05-03T05:18:12.761Z,37.08
2023-05-03T05:19:12.761Z,37.75
2023-05-03T05:20:12.763Z,39.02
2023-05-03T05:21:12.754Z,38.76
2023-05-03T05:22:12.738Z,40.62
2023-05-03T05:23:12.736Z,42.33
2023-05-03T05:24:12.751Z,45.68
2023-05-03T05:25:12.735Z,44.73
2023-05-03T05:26:12.728Z,50.75
2023-05-03T05:27:12.716Z,64.75
2023-05-03T05:28:12.737Z,71.07
2023-05-03T05:29:12.755Z,64.59
2023-05-03T05:30:12.724Z,69.91
2023-05-03T05:31:12.796Z,80.69
2023-05-03T05:32:12.730Z,80.60
2023-05-03T05:33:12.729Z,83.35
2023-05-03T05:34:12.673Z,104.91
2023-05-03T05:35:12.673Z,116.32
2023-05-03T05:36:12.652Z,112.51
2023-05-03T05:37:12.683Z,110.60
2023-05-03T05:38:12.633Z,123.94
2023-05-03T05:39:12.705Z,126.06
2023-05-03T05:40:12.612Z,126.50
2023-05-03T05:41:12.602Z,132.51
2023-05-03T05:42:12.590Z,133.75
2023-05-03T05:43:12.600Z,139.44
2023-05-03T05:44:12.587Z,144.28
2023-05-03T05:45:12.573Z,150.11
2023-05-03T05:46:12.592Z,154.73
2023-05-03T05:47:12.688Z,157.76
2023-05-03T05:48:12.826Z,162.24
2023-05-03T05:49:12.661Z,168.50
2023-05-03T05:50:18.062Z,179.72
2023-05-03T05:51:13.658Z,179.92
2023-05-03T05:52:12.676Z,181.05
2023-05-03T05:53:12.680Z,186.88
2023-05-03T05:54:13.636Z,180.88
2023-05-03T05:55:12.590Z,184.61
2023-05-03T05:56:12.572Z,191.51
2023-05-03T05:57:12.583Z,204.84
2023-05-03T05:58:12.526Z,224.23
2023-05-03T05:59:12.510Z,227.40
2023-05-03T06:00:12.485Z,233.97
2023-05-03T06:01:12.490Z,237.32
2023-05-03T06:02:12.498Z,236.54
2023-05-03T06:03:12.465Z,246.35
2023-05-03T06:04:12.397Z,248.17
2023-05-03T06:05:12.401Z,249.94
2023-05-03T06:06:12.380Z,248.81
2023-05-03T06:07:12.361Z,249.79
2023-05-03T06:08:13.279Z,250.00
2023-05-03T06:09:23.619Z,248.44
2023-05-03T06:10:13.321Z,248.86
2023-05-03T06:11:12.334Z,250.03
2023-05-03T06:12:12.236Z,252.99
2023-05-03T06:13:12.225Z,260.49
2023-05-03T06:14:12.710Z,268.68
2023-05-03T06:15:12.177Z,249.23
2023-05-03T06:16:12.188Z,248.80
2023-05-03T06:17:12.282Z,247.64
2023-05-03T06:18:12.223Z,247.80
2023-05-03T06:19:12.128Z,247.75
2023-05-03T06:20:12.824Z,250.00
2023-05-03T06:21:12.081Z,250.00
2023-05-03T06:22:13.978Z,247.25
2023-05-03T06:23:12.061Z,248.44
2023-05-03T06:24:12.017Z,249.37
2023-05-03T06:25:11.999Z,247.90
2023-05-03T06:26:11.986Z,250.00
2023-05-03T06:27:11.973Z,248.28
2023-05-03T06:28:11.949Z,249.69
2023-05-03T06:29:11.934Z,249.89
2023-05-03T06:30:11.937Z,250.27
2023-05-03T06:31:11.940Z,250.54
2023-05-03T06:32:12.308Z,253.29
2023-05-03T06:33:11.851Z,258.17
2023-05-03T06:34:11.801Z,250.00
2023-05-03T06:35:11.792Z,250.77
2023-05-03T06:36:11.754Z,246.36
2023-05-03T06:37:11.729Z,238.65
2023-05-03T06:38:11.692Z,240.06
2023-05-03T06:39:11.677Z,244.46
2023-05-03T06:40:11.690Z,242.15
2023-05-03T06:41:11.723Z,247.41
2023-05-03T06:42:11.713Z,247.62
2023-05-03T06:43:11.679Z,248.23
2023-05-03T06:44:11.640Z,249.51
2023-05-03T06:45:11.626Z,253.87
2023-05-03T06:46:11.669Z,247.93
2023-05-03T06:47:11.626Z,250.47
2023-05-03T06:48:13.567Z,253.88
2023-05-03T06:49:11.593Z,259.71
2023-05-03T06:50:11.498Z,266.88
2023-05-03T06:51:11.634Z,254.55
2023-05-03T06:52:12.000Z,254.69
2023-05-03T06:53:11.431Z,255.42
2023-05-03T06:54:11.399Z,256.48
2023-05-03T06:55:11.364Z,258.12
2023-05-03T06:56:11.344Z,259.08
2023-05-03T06:57:12.527Z,254.99
2023-05-03T06:58:11.293Z,256.12
2023-05-03T06:59:11.466Z,257.91
2023-05-03T07:00:11.266Z,261.98
2023-05-03T07:01:11.263Z,267.20
2023-05-03T07:02:11.372Z,256.78
2023-05-03T07:03:11.237Z,250.00
2023-05-03T07:04:11.240Z,249.16
2023-05-03T07:05:11.156Z,249.68
2023-05-03T07:06:11.211Z,249.99
2023-05-03T07:07:11.247Z,250.00
2023-05-03T07:08:11.248Z,248.12
2023-05-03T07:09:11.822Z,250.17
2023-05-03T07:10:11.330Z,250.76
2023-05-03T07:11:11.408Z,245.88
2023-05-03T07:12:11.428Z,248.16
2023-05-03T07:13:11.425Z,247.06
2023-05-03T07:14:11.440Z,248.52
2023-05-03T07:15:11.457Z,245.70
2023-05-03T07:16:14.323Z,250.00
2023-05-03T07:17:11.510Z,250.12
2023-05-03T07:18:11.455Z,242.31
2023-05-03T07:19:11.401Z,239.90
2023-05-03T07:20:11.394Z,236.38
2023-05-03T07:21:11.356Z,240.87
2023-05-03T07:22:11.319Z,239.60
2023-05-03T07:23:11.288Z,238.89
2023-05-03T07:24:11.821Z,238.26
2023-05-03T07:25:11.281Z,238.51
2023-05-03T07:26:11.222Z,236.08
2023-05-03T07:27:11.329Z,235.79
2023-05-03T07:28:11.165Z,236.25
2023-05-03T07:29:11.166Z,233.95
2023-05-03T07:30:11.127Z,233.57
2023-05-03T07:31:12.134Z,233.63
2023-05-03T07:32:11.146Z,232.99
2023-05-03T07:33:11.076Z,231.67
2023-05-03T07:34:11.032Z,230.05
2023-05-03T07:35:10.982Z,230.76
2023-05-03T07:36:10.970Z,225.94
2023-05-03T07:37:10.955Z,225.05
2023-05-03T07:38:10.925Z,223.19
2023-05-03T07:39:10.891Z,221.11
2023-05-03T07:40:10.889Z,221.10
2023-05-03T07:41:10.855Z,219.66
2023-05-03T07:42:10.896Z,221.61
2023-05-03T07:43:10.815Z,217.92
2023-05-03T07:44:10.815Z,218.41
2023-05-03T07:45:10.784Z,215.92
2023-05-03T07:46:10.800Z,216.03
2023-05-03T07:47:10.840Z,215.17
2023-05-03T07:48:10.761Z,215.09
2023-05-03T07:49:11.319Z,216.61
2023-05-03T07:50:10.790Z,216.03
2023-05-03T07:51:11.332Z,216.20
2023-05-03T07:52:10.762Z,216.81
2023-05-03T07:53:10.762Z,217.12
2023-05-03T07:54:10.786Z,217.79
2023-05-03T07:55:11.293Z,215.43
2023-05-03T07:56:10.751Z,215.98
2023-05-03T07:57:10.837Z,215.91
2023-05-03T07:58:10.752Z,213.02
2023-05-03T07:59:12.353Z,213.23
2023-05-03T08:00:10.760Z,216.08
2023-05-03T08:01:12.351Z,213.90
2023-05-03T08:02:11.410Z,213.73
2023-05-03T08:03:10.903Z,215.32
2023-05-03T08:04:11.014Z,213.88
2023-05-03T08:05:10.865Z,214.26
2023-05-03T08:06:10.756Z,214.40
2023-05-03T08:07:10.700Z,213.74
2023-05-03T08:08:10.715Z,212.51
2023-05-03T08:09:17.325Z,211.63
2023-05-03T08:10:13.333Z,214.43
2023-05-03T08:11:10.611Z,214.39
2023-05-03T08:12:10.591Z,214.43
2023-05-03T08:13:10.594Z,213.38
2023-05-03T08:14:10.569Z,211.63
2023-05-03T08:15:10.596Z,212.43
2023-05-03T08:16:10.563Z,208.52
2023-05-03T08:17:10.708Z,208.45
2023-05-03T08:18:10.682Z,206.95
2023-05-03T08:19:10.641Z,207.79
2023-05-03T08:20:10.488Z,205.49
2023-05-03T08:21:10.474Z,206.22
2023-05-03T08:22:10.435Z,201.74
2023-05-03T08:23:12.438Z,199.81
2023-05-03T08:24:10.416Z,200.00
2023-05-03T08:25:10.385Z,200.30
2023-05-03T08:26:10.371Z,200.93
2023-05-03T08:27:11.839Z,201.60
2023-05-03T08:28:10.373Z,200.27
2023-05-03T08:29:10.347Z,200.09
2023-05-03T08:30:10.318Z,198.64
2023-05-03T08:31:10.337Z,198.64
2023-05-03T08:32:10.312Z,196.96
2023-05-03T08:33:10.336Z,195.22
2023-05-03T08:34:10.271Z,194.96
2023-05-03T08:35:10.900Z,196.12
2023-05-03T08:36:10.243Z,197.67
2023-05-03T08:37:10.242Z,195.61
2023-05-03T08:38:10.225Z,192.49
2023-05-03T08:39:10.210Z,191.75
2023-05-03T08:40:10.175Z,194.36
2023-05-03T08:41:10.186Z,194.30
2023-05-03T08:42:10.198Z,193.81
2023-05-03T08:43:10.214Z,192.62
2023-05-03T08:44:10.222Z,193.56
2023-05-03T08:45:10.233Z,194.35
2023-05-03T08:46:10.271Z,191.56
2023-05-03T08:47:10.294Z,191.50
2023-05-03T08:48:10.311Z,191.22
2023-05-03T08:49:10.286Z,189.33
2023-05-03T08:50:10.299Z,187.17
2023-05-03T08:51:10.378Z,186.48
2023-05-03T08:52:10.344Z,183.94
2023-05-03T08:53:10.307Z,184.09
2023-05-03T08:54:10.323Z,184.44
2023-05-03T08:55:10.838Z,184.66
2023-05-03T08:56:10.271Z,185.06
2023-05-03T08:57:10.257Z,184.11
2023-05-03T08:58:10.245Z,184.52
2023-05-03T08:59:10.210Z,184.74
2023-05-03T09:00:11.877Z,185.04
2023-05-03T09:01:10.186Z,183.80
2023-05-03T09:02:10.174Z,184.46
2023-05-03T09:03:11.228Z,184.57
2023-05-03T09:04:10.257Z,184.59
2023-05-03T09:05:10.156Z,184.51
2023-05-03T09:06:10.122Z,181.82
2023-05-03T09:07:10.354Z,181.46
2023-05-03T09:08:10.095Z,178.03
2023-05-03T09:09:10.064Z,178.14
2023-05-03T09:10:10.046Z,178.35
2023-05-03T09:11:10.030Z,178.33
2023-05-03T09:12:10.013Z,178.21
2023-05-03T09:13:10.101Z,177.88
2023-05-03T09:14:09.988Z,177.32
2023-05-03T09:15:09.962Z,177.16
2023-05-03T09:16:09.977Z,177.12
2023-05-03T09:17:09.941Z,176.69
2023-05-03T09:18:10.077Z,176.14
2023-05-03T09:19:09.916Z,174.93
2023-05-03T09:20:09.920Z,173.94
2023-05-03T09:21:09.887Z,174.08
2023-05-03T09:22:09.874Z,172.39
2023-05-03T09:23:09.901Z,171.08
2023-05-03T09:24:09.845Z,169.41
2023-05-03T09:25:09.854Z,170.12
2023-05-03T09:26:09.865Z,169.33
2023-05-03T09:27:09.841Z,169.46
2023-05-03T09:28:09.859Z,169.04
2023-05-03T09:29:09.801Z,169.04
2023-05-03T09:30:09.789Z,168.07
2023-05-03T09:31:11.464Z,166.69
2023-05-03T09:32:09.783Z,166.19
2023-05-03T09:33:09.775Z,167.00
2023-05-03T09:34:09.727Z,167.66
2023-05-03T09:35:09.700Z,165.96
2023-05-03T09:36:09.704Z,164.57
2023-05-03T09:37:09.678Z,165.19
2023-05-03T09:38:09.678Z,164.75
2023-05-03T09:39:09.664Z,164.82
2023-05-03T09:40:09.633Z,164.84
2023-05-03T09:41:09.623Z,164.27
2023-05-03T09:42:09.606Z,164.06
2023-05-03T09:43:09.582Z,162.77
2023-05-03T09:44:09.573Z,161.63
2023-05-03T09:45:09.575Z,161.04
2023-05-03T09:46:09.701Z,160.81
2023-05-03T09:47:09.528Z,160.74
2023-05-03T09:48:09.553Z,161.86
2023-05-03T09:49:09.514Z,159.67
2023-05-03T09:50:09.520Z,160.65
2023-05-03T09:51:09.483Z,157.34
2023-05-03T09:52:09.476Z,155.89
2023-05-03T09:53:09.479Z,157.24
2023-05-03T09:54:09.527Z,157.22
2023-05-03T09:55:09.468Z,155.07
2023-05-03T09:56:09.451Z,156.55
2023-05-03T09:57:09.444Z,156.74
2023-05-03T09:58:09.426Z,155.47
2023-05-03T09:59:09.417Z,155.47
2023-05-03T10:00:09.393Z,152.62
2023-05-03T10:01:09.427Z,152.67
2023-05-03T10:02:09.391Z,153.40
2023-05-03T10:03:09.382Z,152.45
2023-05-03T10:04:09.402Z,151.83
2023-05-03T10:05:09.360Z,152.59
2023-05-03T10:06:09.379Z,149.06
2023-05-03T10:07:11.247Z,150.61
2023-05-03T10:08:09.312Z,150.74
2023-05-03T10:09:09.396Z,150.29
2023-05-03T10:10:09.711Z,149.58
2023-05-03T10:11:09.395Z,151.01
2023-05-03T10:12:09.908Z,149.59
2023-05-03T10:13:11.304Z,149.88
2023-05-03T10:14:09.260Z,149.96
2023-05-03T10:15:09.235Z,150.06
2023-05-03T10:16:09.269Z,149.22
2023-05-03T10:17:09.208Z,147.59
2023-05-03T10:18:09.888Z,147.46
2023-05-03T10:19:09.171Z,146.83
2023-05-03T10:20:09.164Z,145.67
2023-05-03T10:21:09.154Z,145.93
2023-05-03T10:22:09.528Z,146.22
2023-05-03T10:23:09.201Z,145.67
2023-05-03T10:24:09.887Z,145.54
2023-05-03T10:25:09.129Z,146.14
2023-05-03T10:26:09.106Z,144.62
2023-05-03T10:27:09.104Z,144.98
2023-05-03T10:28:09.997Z,143.27
2023-05-03T10:29:09.086Z,142.45
2023-05-03T10:30:09.155Z,142.96
2023-05-03T10:31:09.070Z,143.31
2023-05-03T10:32:09.884Z,141.72
2023-05-03T10:33:09.925Z,141.74
2023-05-03T10:34:09.047Z,141.70
2023-05-03T10:35:09.003Z,141.80
2023-05-03T10:36:08.985Z,141.78
2023-05-03T10:37:08.985Z,141.25
2023-05-03T10:38:08.974Z,138.01
2023-05-03T10:39:08.951Z,138.85
2023-05-03T10:40:08.954Z,137.52
2023-05-03T10:41:08.930Z,138.27
2023-05-03T10:42:09.030Z,138.30
2023-05-03T10:43:08.905Z,137.16
2023-05-03T10:44:08.885Z,138.17
2023-05-03T10:45:08.896Z,136.95
2023-05-03T10:46:08.929Z,135.38
2023-05-03T10:47:08.853Z,134.90
2023-05-03T10:48:08.906Z,135.04
2023-05-03T10:49:08.825Z,135.11
2023-05-03T10:50:08.827Z,135.37
2023-05-03T10:51:08.815Z,135.76
2023-05-03T10:52:08.836Z,135.58
2023-05-03T10:53:08.821Z,136.14
2023-05-03T10:54:08.769Z,134.16
2023-05-03T10:55:08.773Z,135.06
2023-05-03T10:56:08.788Z,133.27
2023-05-03T10:57:08.742Z,133.36
2023-05-03T10:58:08.719Z,133.47
2023-05-03T10:59:09.504Z,133.04
2023-05-03T11:00:08.711Z,132.52
2023-05-03T11:01:08.728Z,130.75
2023-05-03T11:02:08.769Z,131.44
2023-05-03T11:03:08.705Z,129.92
2023-05-03T11:04:08.742Z,130.06
2023-05-03T11:05:09.217Z,130.12
2023-05-03T11:06:08.702Z,130.15
2023-05-03T11:07:08.652Z,130.73
2023-05-03T11:08:08.602Z,129.07
2023-05-03T11:09:11.332Z,129.75
2023-05-03T11:10:08.573Z,128.28
2023-05-03T11:11:08.545Z,128.92
2023-05-03T11:12:08.583Z,128.07
2023-05-03T11:13:08.558Z,126.42
2023-05-03T11:14:08.565Z,126.71
2023-05-03T11:15:08.557Z,127.24
2023-05-03T11:16:08.510Z,126.41
2023-05-03T11:17:08.482Z,124.64
2023-05-03T11:18:08.521Z,125.45
2023-05-03T11:19:08.489Z,124.35
2023-05-03T11:20:08.450Z,124.93
2023-05-03T11:21:08.442Z,123.62
2023-05-03T11:22:08.420Z,123.14
2023-05-03T11:23:08.422Z,122.01
2023-05-03T11:24:08.382Z,121.35
2023-05-03T11:25:08.356Z,120.41
2023-05-03T11:26:08.336Z,120.97
2023-05-03T11:27:08.685Z,121.50
2023-05-03T11:28:08.301Z,121.16
2023-05-03T11:29:08.401Z,120.42
2023-05-03T11:30:08.279Z,119.79
2023-05-03T11:31:08.378Z,118.99
2023-05-03T11:32:08.350Z,119.41
2023-05-03T11:33:08.290Z,119.83
2023-05-03T11:34:08.201Z,117.55
2023-05-03T11:35:08.211Z,118.25
2023-05-03T11:36:08.204Z,117.30
2023-05-03T11:37:08.165Z,116.44
2023-05-03T11:38:08.150Z,118.65
2023-05-03T11:39:08.144Z,117.97
2023-05-03T11:40:08.168Z,117.07
2023-05-03T11:41:08.112Z,118.09
2023-05-03T11:42:08.094Z,114.57
2023-05-03T11:43:08.080Z,115.79
2023-05-03T11:44:17.214Z,116.23
2023-05-03T11:45:09.319Z,116.42
2023-05-03T11:46:08.147Z,116.50
2023-05-03T11:47:08.358Z,116.97
2023-05-03T11:48:08.229Z,116.84
2023-05-03T11:49:08.024Z,115.56
2023-05-03T11:50:07.991Z,115.98
2023-05-03T11:51:08.059Z,113.00
2023-05-03T11:52:07.957Z,114.05
2023-05-03T11:53:07.947Z,114.82
2023-05-03T11:54:21.162Z,112.77
2023-05-03T11:55:08.912Z,112.95
2023-05-03T11:56:07.889Z,113.15
2023-05-03T11:57:07.886Z,113.65
2023-05-03T11:58:07.844Z,113.82
2023-05-03T11:59:07.849Z,114.27
2023-05-03T12:00:07.823Z,112.90
2023-05-03T12:01:07.802Z,112.68
2023-05-03T12:02:08.193Z,113.95
2023-05-03T12:03:07.970Z,111.98
2023-05-03T12:04:08.221Z,113.16
2023-05-03T12:05:08.659Z,111.89
2023-05-03T12:06:08.424Z,110.71
2023-05-03T12:07:08.127Z,111.99
2023-05-03T12:08:09.106Z,111.88
2023-05-03T12:09:08.189Z,111.88
2023-05-03T12:10:15.041Z,110.68
2023-05-03T12:12:09.954Z,110.98
2023-05-03T12:13:08.913Z,110.79
2023-05-03T12:14:07.805Z,111.19
2023-05-03T12:15:08.216Z,111.27
2023-05-03T12:16:12.712Z,111.57
2023-05-03T12:17:08.637Z,110.86
2023-05-03T12:18:09.195Z,110.91
2023-05-03T12:20:42.067Z,110.68
2023-05-03T12:22:22.936Z,110.85
2023-05-03T12:23:09.573Z,111.00
2023-05-03T12:24:07.528Z,111.03
2023-05-03T12:25:09.385Z,111.40
2023-05-03T12:26:09.729Z,110.89
2023-05-03T12:27:08.615Z,111.27
2023-05-03T12:28:19.748Z,110.22
2023-05-03T12:29:10.019Z,110.82
2023-05-03T12:31:07.849Z,110.78
2023-05-03T12:32:07.745Z,109.16
2023-05-03T12:33:09.799Z,106.46
2023-05-03T12:34:31.520Z,109.33
2023-05-03T12:35:08.816Z,110.81
2023-05-03T12:36:09.604Z,110.65
2023-05-03T12:37:10.338Z,109.08
2023-05-03T12:38:09.545Z,110.69
2023-05-03T12:39:09.856Z,110.69
2023-05-03T12:40:31.555Z,110.83
2023-05-03T12:41:09.301Z,110.92
2023-05-03T12:42:08.305Z,111.02